createdAt,value
2022-10-05T00:00:35.293Z,81.44
2022-10-05T00:01:36.197Z,81.34
2022-10-05T00:02:33.923Z,81.78
2022-10-05T00:03:34.211Z,81.88
2022-10-05T00:04:34.519Z,82.08
2022-10-05T00:05:36.709Z,81.44
2022-10-05T00:06:35.939Z,81.88
2022-10-05T00:07:35.436Z,81.98
2022-10-05T00:08:35.749Z,81.64
2022-10-05T00:09:36.055Z,81.98
2022-10-05T00:10:39.195Z,81.88
2022-10-05T00:11:39.439Z,82.08
2022-10-05T00:12:39.575Z,81.57
2022-10-05T00:13:38.084Z,81.23
2022-10-05T00:14:38.246Z,81.23
2022-10-05T00:15:41.087Z,81.78
2022-10-05T00:16:38.107Z,81.78
2022-10-05T00:17:40.206Z,81.88
2022-10-05T00:18:39.399Z,81.78
2022-10-05T00:19:39.811Z,81.78
2022-10-05T00:20:40.137Z,81.68
2022-10-05T00:21:41.506Z,81.78
2022-10-05T00:22:41.570Z,81.48
2022-10-05T00:23:40.967Z,81.98
2022-10-05T00:24:41.127Z,82.12
2022-10-05T00:25:41.562Z,82.59
2022-10-05T00:26:41.014Z,82.08
2022-10-05T00:27:43.175Z,82.08
2022-10-05T00:28:43.370Z,82.28
2022-10-05T00:29:41.749Z,82.08
2022-10-05T00:30:42.555Z,82.42
2022-10-05T00:31:45.804Z,82.49
2022-10-05T00:32:42.544Z,82.49
2022-10-05T00:33:43.739Z,82.49
2022-10-05T00:34:43.106Z,82.59
2022-10-05T00:35:43.421Z,82.59
2022-10-05T00:36:47.375Z,82.59
2022-10-05T00:37:45.851Z,82.79
2022-10-05T00:38:46.025Z,82.93
2022-10-05T00:39:46.216Z,83.33
2022-10-05T00:40:46.897Z,83.44
2022-10-05T00:41:47.958Z,83.44
2022-10-05T00:42:47.308Z,83.09
2022-10-05T00:43:47.511Z,83.13
2022-10-05T00:44:48.040Z,83.64
2022-10-05T00:45:47.784Z,83.84
2022-10-05T00:46:49.402Z,83.94
2022-10-05T00:47:48.643Z,83.80
2022-10-05T00:48:47.429Z,83.54
2022-10-05T00:49:49.581Z,83.94
2022-10-05T00:50:49.773Z,84.25
2022-10-05T00:51:50.906Z,84.25
2022-10-05T00:52:50.140Z,84.34
2022-10-05T00:53:50.832Z,84.89
2022-10-05T00:54:51.018Z,84.65
2022-10-05T00:55:51.204Z,84.95
2022-10-05T00:56:52.353Z,84.75
2022-10-05T00:57:52.088Z,84.85
2022-10-05T00:58:50.353Z,84.55
2022-10-05T00:59:52.543Z,84.65
2022-10-05T01:00:50.975Z,84.75
2022-10-05T01:01:52.360Z,83.70
2022-10-05T01:02:53.585Z,83.60
2022-10-05T01:03:51.865Z,83.70
2022-10-05T01:04:54.050Z,83.84
2022-10-05T01:05:52.433Z,84.69
2022-10-05T01:06:54.622Z,84.55
2022-10-05T01:07:53.027Z,84.45
2022-10-05T01:08:55.212Z,84.34
2022-10-05T01:09:53.608Z,84.34
2022-10-05T01:10:53.912Z,84.34
2022-10-05T01:11:56.089Z,84.04
2022-10-05T01:12:56.267Z,84.45
2022-10-05T01:13:56.455Z,84.04
2022-10-05T01:14:55.086Z,83.84
2022-10-05T01:15:55.399Z,84.48
2022-10-05T01:16:57.674Z,84.89
2022-10-05T01:17:56.027Z,85.10
2022-10-05T01:18:58.206Z,84.69
2022-10-05T01:19:56.595Z,84.55
2022-10-05T01:20:56.911Z,84.55
2022-10-05T01:21:59.081Z,84.45
2022-10-05T01:22:59.265Z,84.34
2022-10-05T01:23:59.459Z,84.25
2022-10-05T01:24:58.100Z,84.25
2022-10-05T01:26:00.301Z,84.14
2022-10-05T01:27:00.484Z,84.25
2022-10-05T01:27:59.042Z,84.45
2022-10-05T01:29:01.182Z,84.65
2022-10-05T01:29:59.572Z,84.45
2022-10-05T01:30:59.885Z,84.65
2022-10-05T01:32:02.047Z,84.45
2022-10-05T01:33:00.426Z,84.25
2022-10-05T01:34:02.609Z,84.14
2022-10-05T01:35:02.801Z,84.34
2022-10-05T01:36:01.308Z,84.11
2022-10-05T01:37:03.491Z,84.25
2022-10-05T01:38:05.125Z,84.20
2022-10-05T01:39:03.863Z,84.45
2022-10-05T01:40:02.496Z,84.45
2022-10-05T01:41:02.797Z,84.31
2022-10-05T01:42:03.104Z,83.90
2022-10-05T01:43:05.280Z,84.11
2022-10-05T01:44:05.466Z,84.45
2022-10-05T01:45:03.994Z,84.25
2022-10-05T01:46:04.314Z,84.45
2022-10-05T01:47:04.604Z,84.34
2022-10-05T01:48:04.944Z,84.55
2022-10-05T01:49:05.251Z,84.31
2022-10-05T01:50:07.441Z,84.34
2022-10-05T01:51:07.796Z,84.31
2022-10-05T01:52:06.064Z,84.00
2022-10-05T01:53:06.361Z,84.00
2022-10-05T01:54:08.572Z,84.00
2022-10-05T01:55:08.755Z,84.45
2022-10-05T01:56:08.968Z,84.85
2022-10-05T01:57:07.602Z,84.85
2022-10-05T01:58:09.794Z,84.51
2022-10-05T01:59:09.976Z,84.11
2022-10-05T02:00:11.122Z,84.61
2022-10-05T02:01:09.585Z,84.31
2022-10-05T02:02:09.114Z,84.11
2022-10-05T02:03:09.292Z,84.61
2022-10-05T02:04:09.534Z,84.51
2022-10-05T02:05:12.675Z,84.61
2022-10-05T02:06:12.884Z,84.71
2022-10-05T02:07:10.402Z,85.05
2022-10-05T02:08:11.684Z,84.61
2022-10-05T02:09:12.927Z,84.71
2022-10-05T02:10:13.100Z,84.51
2022-10-05T02:11:13.345Z,84.51
2022-10-05T02:12:12.837Z,84.61
2022-10-05T02:13:12.209Z,84.81
2022-10-05T02:14:12.516Z,84.31
2022-10-05T02:15:14.697Z,84.41
2022-10-05T02:16:14.135Z,84.71
2022-10-05T02:17:13.357Z,84.81
2022-10-05T02:18:13.672Z,84.71
2022-10-05T02:19:13.988Z,84.71
2022-10-05T02:20:16.165Z,84.61
2022-10-05T02:21:15.557Z,84.17
2022-10-05T02:22:14.786Z,84.71
2022-10-05T02:23:16.945Z,84.61
2022-10-05T02:24:17.113Z,84.61
2022-10-05T02:25:17.290Z,84.81
2022-10-05T02:26:16.913Z,85.02
2022-10-05T02:27:18.149Z,84.57
2022-10-05T02:28:16.466Z,84.61
2022-10-05T02:29:18.598Z,84.47
2022-10-05T02:30:18.803Z,84.47
2022-10-05T02:31:20.743Z,84.20
2022-10-05T02:32:19.178Z,84.57
2022-10-05T02:33:19.854Z,84.61
2022-10-05T02:34:20.040Z,84.91
2022-10-05T02:35:20.217Z,85.11
2022-10-05T02:36:20.613Z,85.31
2022-10-05T02:37:19.130Z,85.31
2022-10-05T02:38:20.324Z,84.91
2022-10-05T02:39:19.705Z,85.02
2022-10-05T02:40:20.874Z,84.81
2022-10-05T02:41:20.366Z,85.22
2022-10-05T02:42:21.460Z,85.22
2022-10-05T02:43:20.843Z,85.22
2022-10-05T02:44:21.153Z,85.31
2022-10-05T02:45:21.466Z,85.02
2022-10-05T02:46:24.829Z,85.36
2022-10-05T02:47:23.925Z,85.52
2022-10-05T02:48:22.446Z,85.31
2022-10-05T02:49:22.781Z,85.46
2022-10-05T02:50:23.076Z,85.52
2022-10-05T02:51:25.389Z,85.31
2022-10-05T02:52:25.611Z,84.91
2022-10-05T02:53:23.982Z,85.02
2022-10-05T02:54:24.285Z,85.22
2022-10-05T02:55:26.472Z,85.31
2022-10-05T02:56:25.830Z,85.31
2022-10-05T02:57:27.062Z,85.22
2022-10-05T02:58:27.235Z,85.31
2022-10-05T02:59:25.744Z,85.02
2022-10-05T03:00:27.928Z,85.02
2022-10-05T03:01:27.397Z,84.91
2022-10-05T03:02:26.695Z,85.31
2022-10-05T03:03:28.550Z,85.22
2022-10-05T03:04:27.295Z,85.02
2022-10-05T03:05:29.491Z,85.22
2022-10-05T03:06:30.659Z,84.91
2022-10-05T03:07:29.887Z,85.11
2022-10-05T03:08:31.029Z,84.81
2022-10-05T03:09:30.769Z,84.71
2022-10-05T03:10:29.027Z,84.91
2022-10-05T03:11:32.008Z,84.81
2022-10-05T03:12:29.671Z,85.02
2022-10-05T03:13:30.794Z,85.11
2022-10-05T03:14:32.178Z,85.11
2022-10-05T03:15:32.358Z,85.22
2022-10-05T03:16:31.847Z,85.22
2022-10-05T03:17:31.219Z,85.02
2022-10-05T03:18:31.519Z,84.91
2022-10-05T03:19:33.707Z,85.02
2022-10-05T03:20:32.087Z,84.81
2022-10-05T03:21:35.244Z,85.02
2022-10-05T03:22:32.642Z,85.11
2022-10-05T03:23:32.974Z,85.22
2022-10-05T03:24:35.138Z,84.61
2022-10-05T03:25:33.525Z,84.61
2022-10-05T03:26:37.203Z,84.27
2022-10-05T03:27:34.121Z,84.61
2022-10-05T03:28:34.482Z,85.11
2022-10-05T03:29:36.623Z,84.81
2022-10-05T03:30:35.015Z,84.51
2022-10-05T03:31:39.746Z,84.41
2022-10-05T03:32:35.595Z,84.91
2022-10-05T03:33:35.903Z,84.91
2022-10-05T03:34:36.213Z,85.31
2022-10-05T03:35:36.523Z,85.11
2022-10-05T03:36:38.824Z,85.22
2022-10-05T03:37:39.015Z,84.71
2022-10-05T03:38:39.154Z,85.11
2022-10-05T03:39:39.340Z,85.02
2022-10-05T03:40:37.967Z,85.02
2022-10-05T03:41:39.107Z,84.81
2022-10-05T03:42:41.447Z,84.91
2022-10-05T03:43:38.854Z,84.81
2022-10-05T03:44:40.606Z,84.91
2022-10-05T03:45:40.517Z,85.11
2022-10-05T03:46:41.730Z,84.91
2022-10-05T03:47:42.847Z,85.36
2022-10-05T03:48:41.261Z,84.91
2022-10-05T03:49:41.411Z,85.11
2022-10-05T03:50:42.735Z,85.11
2022-10-05T03:51:42.943Z,85.11
2022-10-05T03:52:43.168Z,84.81
2022-10-05T03:53:42.565Z,84.91
2022-10-05T03:54:42.740Z,85.22
2022-10-05T03:55:44.116Z,85.11
2022-10-05T03:56:43.584Z,85.31
2022-10-05T03:57:44.696Z,85.46
2022-10-05T03:58:43.084Z,85.22
2022-10-05T03:59:46.240Z,85.36
2022-10-05T04:00:43.645Z,85.31
2022-10-05T04:01:46.259Z,85.02
2022-10-05T04:02:45.120Z,85.22
2022-10-05T04:03:45.430Z,84.71
2022-10-05T04:04:46.657Z,85.31
2022-10-05T04:05:46.841Z,84.71
2022-10-05T04:06:47.312Z,85.22
2022-10-05T04:07:46.641Z,85.56
2022-10-05T04:08:48.383Z,85.42
2022-10-05T04:09:48.076Z,84.81
2022-10-05T04:10:47.531Z,85.02
2022-10-05T04:11:48.765Z,85.11
2022-10-05T04:12:47.134Z,85.11
2022-10-05T04:13:47.613Z,85.02
2022-10-05T04:14:49.622Z,85.11
2022-10-05T04:15:48.080Z,85.42
2022-10-05T04:16:49.444Z,84.91
2022-10-05T04:17:48.573Z,85.02
2022-10-05T04:18:49.892Z,85.02
2022-10-05T04:19:49.137Z,84.61
2022-10-05T04:20:51.326Z,85.02
2022-10-05T04:21:50.508Z,84.71
2022-10-05T04:22:49.987Z,84.71
2022-10-05T04:23:51.203Z,84.81
2022-10-05T04:24:50.552Z,84.61
2022-10-05T04:25:52.757Z,84.81
2022-10-05T04:26:52.924Z,84.61
2022-10-05T04:27:51.616Z,84.51
2022-10-05T04:28:53.804Z,84.51
2022-10-05T04:29:52.074Z,84.41
2022-10-05T04:30:52.372Z,84.61
2022-10-05T04:31:54.555Z,84.81
2022-10-05T04:32:54.741Z,84.31
2022-10-05T04:33:55.895Z,83.96
2022-10-05T04:34:55.124Z,84.41
2022-10-05T04:35:55.806Z,84.17
2022-10-05T04:36:55.981Z,83.76
2022-10-05T04:37:56.173Z,84.17
2022-10-05T04:38:57.325Z,84.41
2022-10-05T04:39:55.094Z,84.61
2022-10-05T04:40:57.283Z,84.41
2022-10-05T04:41:57.465Z,84.31
2022-10-05T04:42:57.649Z,83.86
2022-10-05T04:43:58.819Z,84.27
2022-10-05T04:44:59.337Z,83.56
2022-10-05T04:45:56.852Z,84.06
2022-10-05T04:46:59.057Z,83.86
2022-10-05T04:47:57.396Z,83.56
2022-10-05T04:49:01.049Z,83.46
2022-10-05T04:49:57.962Z,83.66
2022-10-05T04:51:00.115Z,83.46
2022-10-05T04:51:58.511Z,84.20
2022-10-05T04:52:58.804Z,83.96
2022-10-05T04:54:00.108Z,84.51
2022-10-05T04:55:01.358Z,84.61
2022-10-05T04:55:59.600Z,84.00
2022-10-05T04:56:59.919Z,84.20
2022-10-05T04:58:00.220Z,84.27
2022-10-05T04:59:03.226Z,84.20
2022-10-05T05:00:01.830Z,84.51
2022-10-05T05:01:01.295Z,84.71
2022-10-05T05:02:01.517Z,84.61
2022-10-05T05:03:01.826Z,84.11
2022-10-05T05:04:05.534Z,84.81
2022-10-05T05:05:02.442Z,84.31
2022-10-05T05:06:16.769Z,84.71
2022-10-05T05:07:04.071Z,84.31
2022-10-05T05:08:05.258Z,84.71
2022-10-05T05:09:06.403Z,84.27
2022-10-05T05:10:03.935Z,84.06
2022-10-05T05:11:04.236Z,84.51
2022-10-05T05:12:04.545Z,84.20
2022-10-05T05:13:06.721Z,84.37
2022-10-05T05:14:06.117Z,84.00
2022-10-05T05:15:05.363Z,84.81
2022-10-05T05:16:05.725Z,84.41
2022-10-05T05:17:12.907Z,84.31
2022-10-05T05:18:10.022Z,84.31
2022-10-05T05:19:06.558Z,84.61
2022-10-05T05:20:06.881Z,84.27
2022-10-05T05:21:07.204Z,84.41
2022-10-05T05:22:07.525Z,84.37
2022-10-05T05:23:10.667Z,84.06
2022-10-05T05:24:09.902Z,84.41
2022-10-05T05:25:08.416Z,84.11
2022-10-05T05:26:08.738Z,84.61
2022-10-05T05:27:10.912Z,84.51
2022-10-05T05:28:13.200Z,84.31
2022-10-05T05:29:09.580Z,84.61
2022-10-05T05:30:09.927Z,84.00
2022-10-05T05:31:10.273Z,84.41
2022-10-05T05:32:10.595Z,84.11
2022-10-05T05:33:13.777Z,84.31
2022-10-05T05:34:11.195Z,84.06
2022-10-05T05:35:11.535Z,84.41
2022-10-05T05:36:11.882Z,84.20
2022-10-05T05:37:12.234Z,85.02
2022-10-05T05:38:15.409Z,84.81
2022-10-05T05:39:13.699Z,84.71
2022-10-05T05:40:14.119Z,84.41
2022-10-05T05:41:15.264Z,84.41
2022-10-05T05:42:15.424Z,84.51
2022-10-05T05:43:16.572Z,84.51
2022-10-05T05:44:14.243Z,84.51
2022-10-05T05:45:14.579Z,84.31
2022-10-05T05:46:16.819Z,84.91
2022-10-05T05:47:15.186Z,84.51
2022-10-05T05:48:17.385Z,84.81
2022-10-05T05:49:15.789Z,84.61
2022-10-05T05:50:18.950Z,84.81
2022-10-05T05:51:17.156Z,84.91
2022-10-05T05:52:17.573Z,84.81
2022-10-05T05:53:19.036Z,84.91
2022-10-05T05:54:18.147Z,84.61
2022-10-05T05:55:18.565Z,85.05
2022-10-05T05:56:18.725Z,85.56
2022-10-05T05:57:19.073Z,84.71
2022-10-05T05:58:21.782Z,85.11
2022-10-05T05:59:19.663Z,84.81
2022-10-05T06:00:19.879Z,84.41
2022-10-05T06:01:32.069Z,84.41
2022-10-05T06:02:22.540Z,84.11
2022-10-05T06:03:21.018Z,84.31
2022-10-05T06:04:20.223Z,84.41
2022-10-05T06:05:22.405Z,84.81
2022-10-05T06:06:20.701Z,84.51
2022-10-05T06:07:20.927Z,84.81
2022-10-05T06:08:24.094Z,84.71
2022-10-05T06:09:21.403Z,84.91
2022-10-05T06:10:22.598Z,85.11
2022-10-05T06:11:22.882Z,84.91
2022-10-05T06:12:22.162Z,84.27
2022-10-05T06:13:25.785Z,84.65
2022-10-05T06:14:24.521Z,84.81
2022-10-05T06:15:24.701Z,84.17
2022-10-05T06:16:24.958Z,84.00
2022-10-05T06:17:24.389Z,84.41
2022-10-05T06:18:24.806Z,84.81
2022-10-05T06:19:25.973Z,85.02
2022-10-05T06:20:24.393Z,84.51
2022-10-05T06:21:26.574Z,85.11
2022-10-05T06:22:26.770Z,85.11
2022-10-05T06:23:26.157Z,85.02
2022-10-05T06:24:25.446Z,85.16
2022-10-05T06:25:25.669Z,85.31
2022-10-05T06:26:27.854Z,84.61
2022-10-05T06:27:28.034Z,84.81
2022-10-05T06:28:29.192Z,84.81
2022-10-05T06:29:28.442Z,85.02
2022-10-05T06:30:28.591Z,84.67
2022-10-05T06:31:27.307Z,84.37
2022-10-05T06:32:29.459Z,84.27
2022-10-05T06:33:28.739Z,84.95
2022-10-05T06:34:29.919Z,85.42
2022-10-05T06:35:28.383Z,85.11
2022-10-05T06:36:30.531Z,84.71
2022-10-05T06:37:28.830Z,84.51
2022-10-05T06:38:32.539Z,85.22
2022-10-05T06:39:29.471Z,85.66
2022-10-05T06:40:33.130Z,85.52
2022-10-05T06:41:30.065Z,85.08
2022-10-05T06:42:32.266Z,85.02
2022-10-05T06:43:33.922Z,84.47
2022-10-05T06:44:30.861Z,84.57
2022-10-05T06:45:33.081Z,84.67
2022-10-05T06:46:31.503Z,85.08
2022-10-05T06:47:33.648Z,85.02
2022-10-05T06:48:34.816Z,85.62
2022-10-05T06:49:32.226Z,84.97
2022-10-05T06:50:32.584Z,84.37
2022-10-05T06:51:36.212Z,84.67
2022-10-05T06:52:33.032Z,85.11
2022-10-05T06:53:35.270Z,84.91
2022-10-05T06:54:33.549Z,85.11
2022-10-05T06:55:33.884Z,84.91
2022-10-05T06:56:36.071Z,84.77
2022-10-05T06:57:34.370Z,84.47
2022-10-05T06:58:37.522Z,84.47
2022-10-05T06:59:34.942Z,84.27
2022-10-05T07:00:35.165Z,84.27
2022-10-05T07:01:37.451Z,84.67
2022-10-05T07:02:37.620Z,84.67
2022-10-05T07:03:38.708Z,84.81
2022-10-05T07:04:37.203Z,84.27
2022-10-05T07:05:36.436Z,84.57
2022-10-05T07:06:38.637Z,84.17
2022-10-05T07:07:36.939Z,83.96
2022-10-05T07:08:38.213Z,84.06
2022-10-05T07:09:39.388Z,84.97
2022-10-05T07:10:39.564Z,84.57
2022-10-05T07:11:39.708Z,84.17
2022-10-05T07:12:40.287Z,84.17
2022-10-05T07:13:40.774Z,83.72
2022-10-05T07:14:38.977Z,84.47
2022-10-05T07:15:39.317Z,84.47
2022-10-05T07:16:41.610Z,84.57
2022-10-05T07:17:41.725Z,84.17
2022-10-05T07:18:42.110Z,84.57
2022-10-05T07:19:40.392Z,84.77
2022-10-05T07:20:41.963Z,84.57
2022-10-05T07:21:42.803Z,84.67
2022-10-05T07:22:41.311Z,84.37
2022-10-05T07:23:43.427Z,84.17
2022-10-05T07:24:41.843Z,84.57
2022-10-05T07:25:42.085Z,84.77
2022-10-05T07:26:42.320Z,84.37
2022-10-05T07:27:47.131Z,84.06
2022-10-05T07:28:45.662Z,84.27
2022-10-05T07:29:44.104Z,84.37
2022-10-05T07:30:43.426Z,84.03
2022-10-05T07:31:43.734Z,83.86
2022-10-05T07:32:43.956Z,83.96
2022-10-05T07:33:44.329Z,84.47
2022-10-05T07:34:44.547Z,84.37
2022-10-05T07:35:44.782Z,84.27
2022-10-05T07:36:45.574Z,83.92
2022-10-05T07:37:45.258Z,84.37
2022-10-05T07:38:47.444Z,84.47
2022-10-05T07:40:00.102Z,84.27
2022-10-05T07:40:48.904Z,84.03
2022-10-05T07:41:46.216Z,83.72
2022-10-05T07:42:51.759Z,83.62
2022-10-05T07:44:03.858Z,83.92
2022-10-05T07:44:49.074Z,84.87
2022-10-05T07:45:50.249Z,84.53
2022-10-05T07:46:47.854Z,84.33
2022-10-05T07:47:51.313Z,84.77
2022-10-05T07:48:48.258Z,84.97
2022-10-05T07:49:51.398Z,84.77
2022-10-05T07:50:51.574Z,84.57
2022-10-05T07:51:49.444Z,84.27
2022-10-05T07:52:50.342Z,84.91
2022-10-05T07:53:51.688Z,84.81
2022-10-05T07:54:50.976Z,84.77
2022-10-05T07:55:52.199Z,84.61
2022-10-05T07:56:51.449Z,85.02
2022-10-05T07:57:51.652Z,85.22
2022-10-05T07:58:52.634Z,85.22
2022-10-05T07:59:52.821Z,84.81
2022-10-05T08:00:52.645Z,84.47
2022-10-05T08:01:52.861Z,84.37
2022-10-05T08:02:53.282Z,84.57
2022-10-05T08:03:54.435Z,84.17
2022-10-05T08:04:54.612Z,84.17
2022-10-05T08:05:54.775Z,84.91
2022-10-05T08:06:53.311Z,84.81
2022-10-05T08:07:53.668Z,85.11
2022-10-05T08:08:57.301Z,84.97
2022-10-05T08:09:56.087Z,84.51
2022-10-05T08:10:55.525Z,84.67
2022-10-05T08:11:54.815Z,84.27
2022-10-05T08:12:55.844Z,84.57
2022-10-05T08:13:57.253Z,84.61
2022-10-05T08:14:56.422Z,85.02
2022-10-05T08:15:56.816Z,84.77
2022-10-05T08:16:58.024Z,84.57
2022-10-05T08:17:57.159Z,84.57
2022-10-05T08:18:58.515Z,84.67
2022-10-05T08:19:57.738Z,84.71
2022-10-05T08:20:59.023Z,84.57
2022-10-05T08:21:59.224Z,84.37
2022-10-05T08:22:59.456Z,85.02
2022-10-05T08:23:59.590Z,84.06
2022-10-05T08:24:58.266Z,84.27
2022-10-05T08:25:58.530Z,84.27
2022-10-05T08:26:58.757Z,84.23
2022-10-05T08:27:59.088Z,83.48
2022-10-05T08:29:02.037Z,83.52
2022-10-05T08:30:01.229Z,84.03
2022-10-05T08:30:59.999Z,83.96
2022-10-05T08:32:00.235Z,84.37
2022-10-05T08:33:02.873Z,83.92
2022-10-05T08:34:02.581Z,84.17
2022-10-05T08:35:02.759Z,84.27
2022-10-05T08:36:03.453Z,84.27
2022-10-05T08:37:01.754Z,84.67
2022-10-05T08:38:05.403Z,83.82
2022-10-05T08:39:04.131Z,83.62
2022-10-05T08:40:04.310Z,84.06
2022-10-05T08:41:02.864Z,84.06
2022-10-05T08:42:03.104Z,83.86
2022-10-05T08:43:06.797Z,84.06
2022-10-05T08:44:03.604Z,83.82
2022-10-05T08:45:03.842Z,83.28
2022-10-05T08:46:04.235Z,82.57
2022-10-05T08:47:06.379Z,82.37
2022-10-05T08:48:07.538Z,82.17
2022-10-05T08:49:06.788Z,82.57
2022-10-05T08:50:06.963Z,82.57
2022-10-05T08:51:07.652Z,83.32
2022-10-05T08:52:07.834Z,82.57
2022-10-05T08:53:07.108Z,81.93
2022-10-05T08:54:08.455Z,82.13
2022-10-05T08:55:06.761Z,81.59
2022-10-05T08:56:08.963Z,81.68
2022-10-05T08:57:07.265Z,81.82
2022-10-05T08:58:10.939Z,82.03
2022-10-05T08:59:09.654Z,82.13
2022-10-05T09:00:09.891Z,82.33
2022-10-05T09:01:08.425Z,82.33
2022-10-05T09:02:08.704Z,81.96
2022-10-05T09:03:12.120Z,82.98
2022-10-05T09:04:10.148Z,82.43
2022-10-05T09:05:11.390Z,82.53
2022-10-05T09:06:09.681Z,81.96
2022-10-05T09:07:09.932Z,82.37
2022-10-05T09:08:11.141Z,82.13
2022-10-05T09:09:10.440Z,82.03
2022-10-05T09:10:12.656Z,81.96
2022-10-05T09:11:11.005Z,82.17
2022-10-05T09:12:13.127Z,82.37
2022-10-05T09:13:13.366Z,83.22
2022-10-05T09:14:11.808Z,83.07
2022-10-05T09:15:25.498Z,83.42
2022-10-05T09:16:13.354Z,82.81
2022-10-05T09:17:14.471Z,83.42
2022-10-05T09:18:13.927Z,82.91
2022-10-05T09:19:13.219Z,83.12
2022-10-05T09:20:13.468Z,83.01
2022-10-05T09:21:13.706Z,83.12
2022-10-05T09:22:15.901Z,83.12
2022-10-05T09:23:16.192Z,82.57
2022-10-05T09:24:16.302Z,82.53
2022-10-05T09:25:14.736Z,82.17
2022-10-05T09:26:16.922Z,82.47
2022-10-05T09:27:15.237Z,82.67
2022-10-05T09:28:16.331Z,82.57
2022-10-05T09:29:17.671Z,82.67
2022-10-05T09:30:15.984Z,82.27
2022-10-05T09:31:17.713Z,83.12
2022-10-05T09:32:16.794Z,82.57
2022-10-05T09:33:18.720Z,83.01
2022-10-05T09:34:18.910Z,82.81
2022-10-05T09:35:17.460Z,83.22
2022-10-05T09:36:17.706Z,83.38
2022-10-05T09:37:17.923Z,82.47
2022-10-05T09:38:20.127Z,82.47
2022-10-05T09:39:18.431Z,82.57
2022-10-05T09:40:20.615Z,82.47
2022-10-05T09:41:18.954Z,82.47
2022-10-05T09:42:21.117Z,82.78
2022-10-05T09:43:22.791Z,82.23
2022-10-05T09:44:19.691Z,81.96
2022-10-05T09:45:21.865Z,82.43
2022-10-05T09:46:20.291Z,82.17
2022-10-05T09:47:22.366Z,81.87
2022-10-05T09:48:21.862Z,82.57
2022-10-05T09:49:21.033Z,81.93
2022-10-05T09:50:23.225Z,81.62
2022-10-05T09:51:21.539Z,81.52
2022-10-05T09:52:21.772Z,81.87
2022-10-05T09:53:22.851Z,82.33
2022-10-05T09:54:22.307Z,81.93
2022-10-05T09:55:24.476Z,81.73
2022-10-05T09:56:22.822Z,81.22
2022-10-05T09:57:23.025Z,81.96
2022-10-05T09:58:24.190Z,81.73
2022-10-05T09:59:23.885Z,81.52
2022-10-05T10:00:25.800Z,81.73
2022-10-05T10:01:34.113Z,81.62
2022-10-05T10:02:25.548Z,81.42
2022-10-05T10:03:24.852Z,81.73
2022-10-05T10:04:25.097Z,81.76
2022-10-05T10:05:27.280Z,82.61
2022-10-05T10:06:27.498Z,82.67
2022-10-05T10:07:25.931Z,82.13
2022-10-05T10:08:29.563Z,82.17
2022-10-05T10:09:29.243Z,81.93
2022-10-05T10:10:26.809Z,81.73
2022-10-05T10:11:29.942Z,81.62
2022-10-05T10:12:27.417Z,80.98
2022-10-05T10:13:28.614Z,81.28
2022-10-05T10:14:31.315Z,80.78
2022-10-05T10:15:28.932Z,80.58
2022-10-05T10:16:31.286Z,81.62
2022-10-05T10:17:29.513Z,81.02
2022-10-05T10:18:29.932Z,80.92
2022-10-05T10:19:30.174Z,80.92
2022-10-05T10:20:30.434Z,81.32
2022-10-05T10:21:31.657Z,81.12
2022-10-05T10:22:30.822Z,81.22
2022-10-05T10:23:33.149Z,81.76
2022-10-05T10:24:31.398Z,81.62
2022-10-05T10:25:32.635Z,80.92
2022-10-05T10:26:32.818Z,80.68
2022-10-05T10:27:31.376Z,80.88
2022-10-05T10:28:32.641Z,80.88
2022-10-05T10:29:33.909Z,80.58
2022-10-05T10:30:35.734Z,80.72
2022-10-05T10:31:34.422Z,80.62
2022-10-05T10:32:33.686Z,81.22
2022-10-05T10:33:35.839Z,80.47
2022-10-05T10:34:33.287Z,80.31
2022-10-05T10:35:33.527Z,81.02
2022-10-05T10:36:35.707Z,80.18
2022-10-05T10:37:34.396Z,80.98
2022-10-05T10:38:35.172Z,80.18
2022-10-05T10:39:34.606Z,80.07
2022-10-05T10:40:34.858Z,80.38
2022-10-05T10:41:37.028Z,80.18
2022-10-05T10:42:35.337Z,79.87
2022-10-05T10:43:36.560Z,79.91
2022-10-05T10:44:35.856Z,80.72
2022-10-05T10:45:36.106Z,80.07
2022-10-05T10:46:38.382Z,79.97
2022-10-05T10:47:36.691Z,79.93
2022-10-05T10:48:40.332Z,79.53
2022-10-05T10:49:37.157Z,79.83
2022-10-05T10:50:37.398Z,79.67
2022-10-05T10:51:39.581Z,79.87
2022-10-05T10:52:37.890Z,79.83
2022-10-05T10:53:39.081Z,79.23
2022-10-05T10:54:38.379Z,79.23
2022-10-05T10:55:38.619Z,79.47
2022-10-05T10:56:38.860Z,79.67
2022-10-05T10:57:41.041Z,79.97
2022-10-05T10:58:42.696Z,79.53
2022-10-05T10:59:39.641Z,79.63
2022-10-05T11:00:39.883Z,79.73
2022-10-05T11:01:40.176Z,79.13
2022-10-05T11:02:42.518Z,79.67
2022-10-05T11:03:42.519Z,79.23
2022-10-05T11:04:42.725Z,79.43
2022-10-05T11:05:46.418Z,79.87
2022-10-05T11:06:43.582Z,79.43
2022-10-05T11:07:43.780Z,79.13
2022-10-05T11:08:43.926Z,78.63
2022-10-05T11:09:44.083Z,78.42
2022-10-05T11:10:44.784Z,79.27
2022-10-05T11:11:44.962Z,78.76
2022-10-05T11:12:45.142Z,79.47
2022-10-05T11:13:45.343Z,78.92
2022-10-05T11:14:46.028Z,78.42
2022-10-05T11:15:44.414Z,78.52
2022-10-05T11:16:46.771Z,77.68
2022-10-05T11:17:46.699Z,77.88
2022-10-05T11:18:45.258Z,77.92
2022-10-05T11:20:02.933Z,78.42
2022-10-05T11:20:48.636Z,77.48
2022-10-05T11:21:47.815Z,77.48
2022-10-05T11:22:46.354Z,77.44
2022-10-05T11:23:48.544Z,77.17
2022-10-05T11:24:48.753Z,77.58
2022-10-05T11:25:47.181Z,76.90
2022-10-05T11:26:49.567Z,76.60
2022-10-05T11:27:47.719Z,76.34
2022-10-05T11:28:47.967Z,76.77
2022-10-05T11:29:50.209Z,77.14
2022-10-05T11:30:51.262Z,77.04
2022-10-05T11:31:50.761Z,76.84
2022-10-05T11:32:50.723Z,76.84
2022-10-05T11:33:51.400Z,76.54
2022-10-05T11:34:49.727Z,76.64
2022-10-05T11:35:51.893Z,77.08
2022-10-05T11:36:50.200Z,77.17
2022-10-05T11:37:50.448Z,77.24
2022-10-05T11:38:50.684Z,76.84
2022-10-05T11:39:51.031Z,77.34
2022-10-05T11:40:51.271Z,76.60
2022-10-05T11:41:53.441Z,76.54
2022-10-05T11:42:51.744Z,76.77
2022-10-05T11:43:51.984Z,76.97
2022-10-05T11:44:52.224Z,76.87
2022-10-05T11:45:54.400Z,76.97
2022-10-05T11:46:52.752Z,77.08
2022-10-05T11:47:52.951Z,76.84
2022-10-05T11:48:53.284Z,76.97
2022-10-05T11:49:56.855Z,76.54
2022-10-05T11:50:55.583Z,76.10
2022-10-05T11:51:54.149Z,76.34
2022-10-05T11:52:54.381Z,76.34
2022-10-05T11:53:54.622Z,77.44
2022-10-05T11:55:10.550Z,76.84
2022-10-05T11:55:56.207Z,76.70
2022-10-05T11:56:55.964Z,76.20
2022-10-05T11:57:55.736Z,76.54
2022-10-05T11:58:55.970Z,76.34
2022-10-05T11:59:57.178Z,76.34
2022-10-05T12:00:58.404Z,76.67
2022-10-05T12:01:58.901Z,77.17
2022-10-05T12:02:57.033Z,76.74
2022-10-05T12:03:57.362Z,76.74
2022-10-05T12:04:58.578Z,75.99
2022-10-05T12:05:59.818Z,76.54
2022-10-05T12:07:00.021Z,77.00
2022-10-05T12:07:58.454Z,76.20
2022-10-05T12:08:58.686Z,76.64
2022-10-05T12:09:59.979Z,76.54
2022-10-05T12:11:00.679Z,76.23
2022-10-05T12:11:59.499Z,76.20
2022-10-05T12:13:00.068Z,75.93
2022-10-05T12:14:00.085Z,76.43
2022-10-05T12:15:00.451Z,76.14
2022-10-05T12:16:02.535Z,76.74
2022-10-05T12:17:00.943Z,76.43
2022-10-05T12:18:03.140Z,76.14
2022-10-05T12:19:03.314Z,76.14
2022-10-05T12:20:02.601Z,76.27
2022-10-05T12:21:02.026Z,75.93
2022-10-05T12:22:02.273Z,76.34
2022-10-05T12:23:02.508Z,76.34
2022-10-05T12:24:04.702Z,76.64
2022-10-05T12:25:03.907Z,77.14
2022-10-05T12:26:03.384Z,76.87
2022-10-05T12:27:03.613Z,76.94
2022-10-05T12:28:03.923Z,77.68
2022-10-05T12:29:06.031Z,77.88
2022-10-05T12:30:05.465Z,77.48
2022-10-05T12:31:05.663Z,78.02
2022-10-05T12:32:07.945Z,77.88
2022-10-05T12:33:06.223Z,77.98
2022-10-05T12:34:07.543Z,77.68
2022-10-05T12:35:06.027Z,77.58
2022-10-05T12:36:06.262Z,78.22
2022-10-05T12:37:08.445Z,79.23
2022-10-05T12:38:08.771Z,77.98
2022-10-05T12:39:08.045Z,77.98
2022-10-05T12:40:08.150Z,78.32
2022-10-05T12:41:09.517Z,78.42
2022-10-05T12:42:07.812Z,78.22
2022-10-05T12:43:08.035Z,79.03
2022-10-05T12:44:10.224Z,78.72
2022-10-05T12:45:09.668Z,78.32
2022-10-05T12:46:09.008Z,78.92
2022-10-05T12:47:10.204Z,78.72
2022-10-05T12:48:10.409Z,78.72
2022-10-05T12:49:10.771Z,78.63
2022-10-05T12:50:12.558Z,79.13
2022-10-05T12:51:11.150Z,79.23
2022-10-05T12:52:11.557Z,79.43
2022-10-05T12:53:11.949Z,79.57
2022-10-05T12:54:12.135Z,79.63
2022-10-05T12:55:14.910Z,79.93
2022-10-05T12:56:12.063Z,79.57